Time;durP1;ratioP1;P1;durP2;ratioP2;P2;SDS_P1;SDS_P2;PMS_P1;PMS_P2;Temp;Humidity;BMP_temperature;BMP_pressure;BME280_temperature;BME280_humidity;BME280_pressure;Samples;Min_cycle;Max_cycle;Signal;HPM_P1;HPM_P2
2023/06/09 00:02:19;;;;;;;10.63;4.47;;;;;;;16.80;65.29;101460.16;4843991;29;20042;-78
2023/06/09 00:04:45;;;;;;;11.48;4.63;;;;;;;16.78;65.57;101456.84;4843975;29;20118;-79
2023/06/09 00:07:11;;;;;;;9.05;4.40;;;;;;;16.59;65.28;101429.59;4844103;29;20018;-79
2023/06/09 00:09:36;;;;;;;14.60;4.60;;;;;;;16.60;65.88;101454.69;4842842;29;20388;-80
2023/06/09 00:12:02;;;;;;;11.63;3.90;;;;;;;16.64;65.87;101461.34;4843925;29;20045;-79
2023/06/09 00:14:28;;;;;;;9.30;3.97;;;;;;;16.59;65.49;101454.81;4843965;29;20030;-79
2023/06/09 00:16:55;;;;;;;10.60;4.75;;;;;;;16.48;66.12;101439.19;4843941;29;20116;-80
2023/06/09 00:19:22;;;;;;;8.98;3.65;;;;;;;16.53;65.88;101455.31;4843803;29;20061;-79
2023/06/09 00:21:50;;;;;;;9.15;4.22;;;;;;;16.40;66.27;101442.41;4843724;29;20482;-78
2023/06/09 00:24:19;;;;;;;11.27;4.20;;;;;;;16.38;66.10;101448.69;4843671;29;20040;-79
2023/06/09 00:26:45;;;;;;;8.73;4.07;;;;;;;16.29;66.50;101438.00;4843457;29;20034;-79
2023/06/09 00:29:10;;;;;;;12.25;4.35;;;;;;;16.28;66.69;101448.56;4843605;29;20041;-79
2023/06/09 00:31:36;;;;;;;8.68;3.85;;;;;;;16.26;67.03;101448.69;4843811;29;20086;-79
2023/06/09 00:34:01;;;;;;;10.85;4.28;;;;;;;16.25;66.92;101452.25;4843544;29;20034;-78
2023/06/09 00:36:27;;;;;;;12.57;4.45;;;;;;;16.14;67.17;101438.38;4843543;29;20044;-79
2023/06/09 00:38:52;;;;;;;10.75;4.60;;;;;;;16.10;66.89;101442.16;4843256;29;20030;-80
2023/06/09 00:41:17;;;;;;;9.38;4.32;;;;;;;16.00;67.54;101439.41;4843231;29;20030;-80
2023/06/09 00:43:50;;;;;;;17.70;5.13;;;;;;;15.92;67.79;101420.94;4843344;29;20188;-79
2023/06/09 00:46:16;;;;;;;9.27;3.95;;;;;;;16.01;68.74;101451.50;4842893;29;20109;-79
2023/06/09 00:48:41;;;;;;;10.90;4.30;;;;;;;15.94;68.21;101445.13;4843127;29;20653;-79
2023/06/09 00:51:07;;;;;;;8.63;3.97;;;;;;;15.97;68.24;101447.47;4843311;29;20034;-79
2023/06/09 00:53:33;;;;;;;10.13;3.97;;;;;;;15.89;68.50;101449.81;4843344;29;20097;-79
2023/06/09 00:55:58;;;;;;;10.63;4.95;;;;;;;15.68;68.92;101423.63;4843051;29;20394;-79
2023/06/09 00:58:24;;;;;;;11.43;4.53;;;;;;;15.80;68.84;101448.75;4843149;29;20034;-77
2023/06/09 01:00:51;;;;;;;8.65;4.35;;;;;;;15.74;69.64;101454.44;4843040;29;20040;-77
2023/06/09 01:03:16;;;;;;;10.50;4.22;;;;;;;15.71;69.37;101450.25;4842956;29;20116;-77
2023/06/09 01:05:48;;;;;;;11.30;4.63;;;;;;;15.56;69.34;101434.94;4843216;29;20158;-76
2023/06/09 01:08:34;;;;;;;9.32;4.50;;;;;;;15.66;69.48;101449.78;4841523;29;20030;-76
2023/06/09 01:11:08;;;;;;;10.35;4.53;;;;;;;15.61;69.27;101449.28;4842436;29;20125;-77
2023/06/09 01:13:52;;;;;;;11.20;4.80;;;;;;;15.46;70.02;101430.41;4842900;29;20037;-79
2023/06/09 01:16:24;;;;;;;11.27;4.68;;;;;;;15.56;70.09;101443.56;4860446;29;20049;-78
2023/06/09 01:18:51;;;;;;;9.68;4.70;;;;;;;15.36;71.28;101426.00;4861222;29;20029;-79
2023/06/09 01:21:32;;;;;;;10.48;4.90;;;;;;;15.46;70.16;101445.19;4861123;29;20067;-78
2023/06/09 01:24:46;;;;;;;19.88;5.13;;;;;;;15.32;70.26;101429.75;4860995;29;20382;-77
2023/06/09 01:27:12;;;;;;;9.48;4.50;;;;;;;15.32;70.33;101433.16;4859945;29;20132;-78
2023/06/09 01:29:40;;;;;;;14.02;4.90;;;;;;;15.35;71.01;101447.75;4861184;29;20030;-77
2023/06/09 01:32:07;;;;;;;12.60;4.82;;;;;;;15.29;71.63;101440.38;4861162;29;20148;-79
2023/06/09 01:34:33;;;;;;;9.45;4.03;;;;;;;15.29;71.34;101440.38;4859517;29;20434;-78
2023/06/09 01:36:59;;;;;;;11.43;4.72;;;;;;;15.21;72.51;101433.13;4859152;29;20048;-79
2023/06/09 01:39:26;;;;;;;10.43;4.32;;;;;;;15.19;71.75;101433.25;4860745;29;20026;-78
2023/06/09 01:41:52;;;;;;;8.73;4.75;;;;;;;15.16;72.30;101443.88;4860766;29;20066;-77
2023/06/09 01:44:17;;;;;;;13.90;5.05;;;;;;;14.95;72.93;101419.44;4859405;29;20069;-78
2023/06/09 01:46:43;;;;;;;12.32;5.30;;;;;;;15.05;72.93;101436.03;4860623;29;20381;-79
2023/06/09 01:49:12;;;;;;;13.15;4.90;;;;;;;15.01;73.47;101434.56;4860792;29;20438;-77
2023/06/09 01:51:48;;;;;;;10.07;4.45;;;;;;;14.97;73.32;101430.53;4859015;29;20474;-77
2023/06/09 01:54:20;;;;;;;10.38;5.05;;;;;;;14.86;73.74;101427.88;4860818;29;20112;-77
2023/06/09 01:56:50;;;;;;;8.90;4.18;;;;;;;14.74;74.55;101416.56;4858337;29;20037;-76
2023/06/09 01:59:22;;;;;;;11.18;4.75;;;;;;;14.72;75.28;101423.66;4859524;29;20389;-79
2023/06/09 02:01:50;;;;;;;11.13;4.97;;;;;;;14.77;74.77;101425.94;4860526;29;20127;-77
2023/06/09 02:04:17;;;;;;;11.90;4.95;;;;;;;14.60;75.25;101401.13;4858400;29;20041;-78
2023/06/09 02:06:43;;;;;;;12.20;5.05;;;;;;;14.56;75.94;101410.09;4860260;29;20065;-78
2023/06/09 02:09:09;;;;;;;11.77;5.22;;;;;;;14.67;75.33;101411.94;4860650;29;20105;-79
2023/06/09 02:11:36;;;;;;;11.65;5.13;;;;;;;14.73;75.29;101422.69;4860337;29;20037;-79
2023/06/09 02:14:01;;;;;;;10.15;4.57;;;;;;;14.68;75.71;101422.22;4860407;29;20030;-80
2023/06/09 02:16:27;;;;;;;12.43;5.13;;;;;;;14.56;76.37;101408.31;4860403;29;20034;-79
2023/06/09 02:18:53;;;;;;;8.85;4.57;;;;;;;14.57;75.77;101403.94;4860067;29;20040;-78
2023/06/09 02:21:18;;;;;;;16.10;5.40;;;;;;;14.45;76.08;101397.81;4860489;29;20047;-79
2023/06/09 02:23:43;;;;;;;10.75;5.03;;;;;;;14.52;76.50;101403.44;4860298;29;20026;-79
2023/06/09 02:26:09;;;;;;;10.68;4.95;;;;;;;14.52;76.42;101419.03;4860153;29;20049;-80
2023/06/09 02:28:34;;;;;;;12.05;5.30;;;;;;;14.48;77.03;101410.63;4858843;29;20037;-79
2023/06/09 02:31:00;;;;;;;10.82;5.72;;;;;;;14.44;77.14;101411.72;4860223;29;20093;-80
2023/06/09 02:33:25;;;;;;;11.80;5.05;;;;;;;14.38;77.32;101408.75;4860206;29;20504;-79
2023/06/09 02:35:52;;;;;;;13.63;5.80;;;;;;;14.28;77.52;101403.34;4860182;29;20526;-79
2023/06/09 02:38:17;;;;;;;13.25;5.13;;;;;;;14.35;77.55;101410.63;4860193;29;20064;-81
2023/06/09 02:40:45;;;;;;;9.65;5.15;;;;;;;14.13;78.14;101394.84;4859894;29;20061;-79
2023/06/09 02:43:10;;;;;;;12.10;5.47;;;;;;;14.00;78.47;101375.84;4860218;29;20038;-80
2023/06/09 02:45:36;;;;;;;18.08;5.97;;;;;;;14.02;78.60;101379.16;4860324;29;20025;-78
2023/06/09 02:48:01;;;;;;;10.63;5.15;;;;;;;14.11;79.31;101407.09;4860080;29;20040;-79
2023/06/09 02:50:27;;;;;;;14.38;5.80;;;;;;;13.97;79.07;101389.06;4860117;29;20033;-79
2023/06/09 02:52:52;;;;;;;12.48;5.53;;;;;;;13.97;79.03;101389.88;4860135;29;20061;-80
2023/06/09 02:55:18;;;;;;;15.13;6.10;;;;;;;14.09;79.41;101406.38;4859038;29;20072;-80
2023/06/09 02:57:44;;;;;;;12.00;5.20;;;;;;;14.11;79.34;101408.88;4859935;29;20053;-80
2023/06/09 03:00:12;;;;;;;10.70;5.18;;;;;;;13.95;79.58;101401.28;4860107;29;20059;-80
2023/06/09 03:02:38;;;;;;;11.20;5.72;;;;;;;14.01;79.80;101412.09;4860068;29;20029;-80
2023/06/09 03:05:05;;;;;;;10.40;5.32;;;;;;;13.76;80.37;101376.59;4858749;29;20096;-79
2023/06/09 03:07:31;;;;;;;11.50;5.40;;;;;;;13.83;80.24;101391.75;4858825;29;20094;-79
2023/06/09 03:09:57;;;;;;;11.48;5.68;;;;;;;13.85;80.52;101414.06;4863789;29;20037;-80
2023/06/09 03:12:22;;;;;;;10.30;5.10;;;;;;;13.80;80.44;101403.16;4863554;29;20081;-81
2023/06/09 03:14:48;;;;;;;17.00;5.88;;;;;;;13.82;80.51;101403.06;4863395;29;20470;-77
2023/06/09 03:17:13;;;;;;;12.75;6.40;;;;;;;13.66;80.96;101387.66;4863586;29;20070;-80
2023/06/09 03:19:39;;;;;;;12.85;5.80;;;;;;;13.78;81.04;101413.66;4863627;29;20025;-80
2023/06/09 03:22:05;;;;;;;11.50;5.72;;;;;;;13.75;81.63;101411.25;4863126;29;20431;-79
2023/06/09 03:24:33;;;;;;;12.63;5.53;;;;;;;13.77;81.54;101416.34;4863375;29;20077;-80
2023/06/09 03:26:59;;;;;;;10.77;5.60;;;;;;;13.74;82.12;101419.13;4846676;29;20081;-80
2023/06/09 03:29:24;;;;;;;13.05;5.88;;;;;;;13.70;81.71;101405.53;4863184;29;20143;-80
2023/06/09 03:31:50;;;;;;;11.75;6.00;;;;;;;13.68;81.63;101404.81;4863344;29;20033;-80
2023/06/09 03:34:15;;;;;;;13.23;5.68;;;;;;;13.70;81.80;101418.53;4863324;29;20500;-78
2023/06/09 03:36:41;;;;;;;11.48;5.82;;;;;;;13.69;82.00;101416.88;4863139;29;20033;-79
2023/06/09 03:39:07;;;;;;;12.57;6.05;;;;;;;13.59;82.41;101395.06;4861730;29;20026;-80
2023/06/09 03:41:33;;;;;;;13.30;6.05;;;;;;;13.72;82.55;101413.22;4862725;29;20048;-78
2023/06/09 03:43:58;;;;;;;11.90;5.57;;;;;;;13.74;82.05;101413.94;4862922;29;20026;-79
2023/06/09 03:46:23;;;;;;;12.82;6.20;;;;;;;13.58;82.23;101401.19;4863002;29;20033;-80
2023/06/09 03:48:49;;;;;;;14.27;5.97;;;;;;;13.52;82.05;101387.78;4861686;29;20029;-79
2023/06/09 03:51:15;;;;;;;14.43;5.75;;;;;;;13.57;82.24;101407.31;4861453;29;20044;-80
2023/06/09 03:53:40;;;;;;;14.85;6.38;;;;;;;13.49;82.67;101402.63;4862968;29;20078;-80
2023/06/09 03:56:07;;;;;;;13.38;5.78;;;;;;;13.51;82.78;101406.88;4862773;29;20029;-80
2023/06/09 03:58:32;;;;;;;14.02;5.95;;;;;;;13.67;82.87;101438.66;4862745;29;20033;-79
2023/06/09 04:00:57;;;;;;;13.38;5.85;;;;;;;13.68;83.03;101442.94;4862739;29;20436;-79
2023/06/09 04:03:23;;;;;;;12.70;5.43;;;;;;;13.69;82.88;101442.81;4862666;29;20435;-80
2023/06/09 04:05:49;;;;;;;13.20;5.82;;;;;;;13.55;83.18;101396.16;4845599;29;20043;-79
2023/06/09 04:08:14;;;;;;;12.95;6.22;;;;;;;13.61;83.67;101410.53;4861358;29;20070;-80
2023/06/09 04:10:40;;;;;;;13.82;5.70;;;;;;;13.73;82.87;101438.25;4862647;29;20389;-80
2023/06/09 04:13:06;;;;;;;13.18;5.20;;;;;;;13.73;83.15;101439.06;4862529;29;20537;-80
2023/06/09 04:15:31;;;;;;;13.55;6.10;;;;;;;13.76;83.08;101440.63;4862539;29;20061;-80
2023/06/09 04:17:57;;;;;;;10.68;5.72;;;;;;;13.75;82.47;101418.19;4862459;29;20439;-79
2023/06/09 04:20:24;;;;;;;13.13;5.78;;;;;;;13.71;82.99;101424.53;4861523;29;20113;-79
2023/06/09 04:22:51;;;;;;;15.77;6.13;;;;;;;13.81;82.62;101428.19;4861038;29;20030;-79
2023/06/09 04:25:17;;;;;;;13.25;6.07;;;;;;;13.89;82.27;101419.88;4862168;29;20069;-79
2023/06/09 04:27:43;;;;;;;16.60;6.05;;;;;;;14.10;82.43;101446.16;4862337;29;20033;-79
2023/06/09 04:30:10;;;;;;;12.90;5.95;;;;;;;14.17;81.12;101443.06;4862391;29;20084;-77
2023/06/09 04:32:35;;;;;;;11.70;6.20;;;;;;;14.18;81.54;101436.09;4861042;29;20044;-79
2023/06/09 04:35:01;;;;;;;15.52;5.95;;;;;;;14.33;80.75;101440.22;4862157;29;20021;-79
2023/06/09 04:37:27;;;;;;;13.15;6.30;;;;;;;14.43;80.72;101437.81;4862146;29;20025;-79
2023/06/09 04:39:52;;;;;;;13.98;5.80;;;;;;;14.54;80.40;101451.75;4860694;29;20390;-79
2023/06/09 04:42:22;;;;;;;15.18;6.10;;;;;;;14.47;80.19;101424.56;4861899;29;20032;-78
2023/06/09 04:44:48;;;;;;;14.23;6.18;;;;;;;14.63;81.44;101447.69;4862104;29;20067;-79
2023/06/09 04:47:17;;;;;;;12.20;5.80;;;;;;;14.71;80.76;101449.75;4862023;29;20415;-78
2023/06/09 04:49:47;;;;;;;14.95;5.90;;;;;;;14.69;79.59;101434.28;4862163;29;20030;-78
2023/06/09 04:52:19;;;;;;;15.73;6.00;;;;;;;14.63;80.09;101445.91;4860778;29;20018;-79
2023/06/09 04:54:44;;;;;;;11.40;5.78;;;;;;;14.63;80.60;101456.31;4861705;29;20078;-78
2023/06/09 04:57:11;;;;;;;13.30;6.07;;;;;;;14.67;80.95;101449.16;4860490;29;20155;-78
2023/06/09 04:59:39;;;;;;;18.05;6.78;;;;;;;14.76;80.20;101447.69;4861699;29;20100;-78
2023/06/09 05:02:05;;;;;;;14.07;6.18;;;;;;;14.88;79.97;101445.03;4861574;29;20488;-78
2023/06/09 05:04:30;;;;;;;13.68;5.93;;;;;;;15.29;79.27;101450.78;4861649;29;20021;-79
2023/06/09 05:06:56;;;;;;;13.15;6.13;;;;;;;15.56;78.50;101453.16;4861307;29;20026;-79
2023/06/09 05:09:21;;;;;;;15.15;5.53;;;;;;;15.75;77.02;101437.84;4861699;29;20037;-79
2023/06/09 05:11:46;;;;;;;12.73;6.45;;;;;;;15.98;75.68;101449.97;4861576;29;20026;-79
2023/06/09 05:14:12;;;;;;;14.50;6.60;;;;;;;15.90;75.03;101425.44;4861440;29;20060;-79
2023/06/09 05:16:37;;;;;;;13.82;6.25;;;;;;;16.27;75.10;101449.50;4861562;29;20419;-81
2023/06/09 05:19:03;;;;;;;15.00;6.15;;;;;;;16.63;74.18;101446.66;4861722;29;20132;-81
2023/06/09 05:21:28;;;;;;;13.50;5.90;;;;;;;17.00;72.98;101455.97;4861168;29;20033;-82
2023/06/09 05:23:55;;;;;;;11.35;5.93;;;;;;;17.52;73.39;101429.09;4861123;29;20049;-80
2023/06/09 05:26:20;;;;;;;11.15;5.78;;;;;;;18.25;71.72;101445.59;4861115;29;20045;-79
2023/06/09 05:28:49;;;;;;;13.65;6.15;;;;;;;19.03;65.64;101447.50;4859883;29;20545;-80
2023/06/09 05:31:16;;;;;;;14.13;6.55;;;;;;;19.34;63.70;101431.66;4861014;29;20136;-78
2023/06/09 05:33:42;;;;;;;13.18;6.00;;;;;;;20.18;60.90;101448.34;4861149;29;20431;-79
2023/06/09 05:36:08;;;;;;;13.95;6.10;;;;;;;20.88;58.75;101452.16;4860962;29;20040;-80
2023/06/09 05:38:37;;;;;;;13.70;6.38;;;;;;;21.22;56.47;101445.41;4860994;29;20081;-79
2023/06/09 05:41:03;;;;;;;11.90;5.95;;;;;;;21.67;55.95;101443.50;4859391;29;20492;-78
2023/06/09 05:43:29;;;;;;;11.93;5.95;;;;;;;22.04;54.84;101463.47;4861162;29;20105;-79
2023/06/09 05:45:56;;;;;;;14.68;6.60;;;;;;;22.85;52.79;101450.69;4867433;24;20132;-80
2023/06/09 05:48:22;;;;;;;13.13;5.90;;;;;;;23.83;49.93;101452.53;4861033;29;20048;-81
2023/06/09 05:50:47;;;;;;;15.77;7.15;;;;;;;23.95;47.87;101443.25;4860750;29;20033;-79
2023/06/09 05:53:13;;;;;;;14.10;7.25;;;;;;;23.97;48.03;101446.56;4869862;29;20473;-75
2023/06/09 05:55:38;;;;;;;14.60;6.10;;;;;;;24.64;48.15;101443.50;4880266;29;20093;-79
2023/06/09 05:58:04;;;;;;;12.02;6.90;;;;;;;25.34;45.38;101448.66;4879314;29;20025;-83
2023/06/09 06:00:30;;;;;;;12.10;6.78;;;;;;;25.20;45.25;101450.28;4879193;29;20413;-84
2023/06/09 06:03:00;;;;;;;13.85;7.70;;;;;;;24.93;45.78;101432.28;4878992;29;20495;-80
2023/06/09 06:05:26;;;;;;;15.98;7.50;;;;;;;24.56;45.72;101439.91;4879056;29;20099;-81
2023/06/09 06:07:51;;;;;;;13.43;7.38;;;;;;;25.05;46.35;101454.66;4879137;29;20033;-84
2023/06/09 06:10:17;;;;;;;14.63;7.30;;;;;;;25.25;45.74;101426.75;4879252;29;20029;-81
2023/06/09 06:12:42;;;;;;;14.27;7.70;;;;;;;25.31;44.42;101367.91;4879224;29;20185;-77
2023/06/09 06:15:08;;;;;;;12.80;6.97;;;;;;;26.47;43.27;101454.63;4878859;29;20021;-84
2023/06/09 06:17:33;;;;;;;13.85;7.10;;;;;;;26.13;42.82;101441.94;4878924;29;20029;-80
2023/06/09 06:20:00;;;;;;;17.40;8.20;;;;;;;25.22;44.67;101418.38;4879226;29;20033;-83
2023/06/09 06:22:26;;;;;;;14.13;7.32;;;;;;;25.36;45.64;101428.97;4877664;29;20033;-84
2023/06/09 06:25:13;;;;;;;11.68;7.30;;;;;;;26.26;43.49;101406.88;4879137;29;20484;-83
2023/06/09 06:27:41;;;;;;;14.70;7.13;;;;;;;27.10;41.42;101426.56;4879163;29;20038;-81
2023/06/09 06:30:08;;;;;;;14.13;7.63;;;;;;;26.67;42.07;101401.06;4878993;29;20029;-82
2023/06/09 06:32:38;;;;;;;13.00;7.35;;;;;;;26.98;41.35;101443.97;4878798;29;20069;-82
2023/06/09 06:35:03;;;;;;;13.40;7.88;;;;;;;26.67;42.01;101388.63;4877486;29;20037;-82
2023/06/09 06:37:29;;;;;;;11.63;7.25;;;;;;;27.42;41.23;101450.88;4879209;29;20025;-81
2023/06/09 06:39:55;;;;;;;13.05;7.20;;;;;;;27.28;40.11;101369.59;4878877;29;20025;-76
2023/06/09 06:42:20;;;;;;;14.70;7.18;;;;;;;27.81;40.12;101445.06;4878738;29;20037;-76
2023/06/09 06:44:45;;;;;;;14.48;7.47;;;;;;;27.99;40.16;101436.59;4881712;29;20398;-76
2023/06/09 06:47:11;;;;;;;13.85;6.80;;;;;;;28.32;39.00;101436.81;4882467;29;20033;-76
2023/06/09 06:49:36;;;;;;;15.93;8.30;;;;;;;28.51;38.71;101445.84;4882656;29;20031;-76
2023/06/09 06:52:02;;;;;;;13.35;7.60;;;;;;;28.85;38.05;101451.03;4878375;29;20036;-75
2023/06/09 06:54:27;;;;;;;11.23;7.18;;;;;;;29.02;38.12;101440.88;4864517;29;20029;-75
2023/06/09 06:56:52;;;;;;;12.00;7.05;;;;;;;28.94;37.80;101440.25;4864603;29;20033;-75
2023/06/09 06:59:18;;;;;;;13.18;7.47;;;;;;;28.92;37.91;101419.19;4863359;29;20030;-77
2023/06/09 07:01:44;;;;;;;12.18;7.95;;;;;;;29.34;37.51;101439.25;4866537;29;20032;-76
2023/06/09 07:04:09;;;;;;;14.38;8.38;;;;;;;28.93;37.36;101439.44;4882425;29;20029;-76
2023/06/09 07:06:35;;;;;;;14.90;7.72;;;;;;;28.64;37.99;101439.75;4881885;29;20550;-78
2023/06/09 07:09:01;;;;;;;16.95;8.27;;;;;;;28.57;38.20;101416.63;4882290;29;20100;-76
2023/06/09 07:11:28;;;;;;;15.93;8.90;;;;;;;29.17;37.27;101438.00;4882110;29;20414;-76
2023/06/09 07:13:53;;;;;;;14.25;7.45;;;;;;;29.11;37.18;101437.00;4882115;29;20037;-78
2023/06/09 07:16:18;;;;;;;13.45;7.82;;;;;;;29.59;38.06;101443.94;4882002;29;20045;-75
2023/06/09 07:18:44;;;;;;;13.18;7.95;;;;;;;29.41;36.56;101445.38;4882150;29;20033;-79
2023/06/09 07:21:09;;;;;;;14.15;8.27;;;;;;;29.50;36.97;101439.88;4881948;29;20546;-78
2023/06/09 07:23:34;;;;;;;13.43;8.23;;;;;;;30.17;36.14;101436.03;4881880;29;20033;-79
2023/06/09 07:26:00;;;;;;;15.93;9.13;;;;;;;30.79;34.80;101440.69;4882051;29;20060;-76
2023/06/09 07:28:26;;;;;;;11.95;8.38;;;;;;;31.31;34.79;101440.50;4881872;29;20036;-73
2023/06/09 07:30:51;;;;;;;13.90;8.35;;;;;;;31.08;33.84;101433.09;4881773;29;20086;-76
2023/06/09 07:33:17;;;;;;;14.05;8.60;;;;;;;31.32;33.51;101424.28;4881795;29;20081;-80
2023/06/09 07:35:43;;;;;;;14.45;8.68;;;;;;;31.17;33.25;101422.94;4880792;29;20036;-80
2023/06/09 07:38:21;;;;;;;13.63;8.18;;;;;;;30.37;35.43;101362.16;4880358;29;20036;-81
2023/06/09 07:40:46;;;;;;;14.43;8.75;;;;;;;29.39;36.18;101446.59;4879931;29;20409;-81
2023/06/09 07:43:11;;;;;;;13.98;9.18;;;;;;;27.70;40.84;101451.75;4881783;29;20033;-77
2023/06/09 07:45:37;;;;;;;15.13;9.23;;;;;;;26.30;42.69;101445.22;4881198;29;20132;-76
2023/06/09 07:48:02;;;;;;;15.15;9.40;;;;;;;25.37;45.92;101448.34;4872382;29;20041;-76
2023/06/09 07:50:28;;;;;;;16.55;9.45;;;;;;;24.57;47.74;101452.13;4863160;29;20085;-78
2023/06/09 07:52:53;;;;;;;15.18;9.98;;;;;;;24.11;49.69;101445.03;4862610;29;20034;-75
2023/06/09 07:55:19;;;;;;;14.68;9.95;;;;;;;23.83;50.97;101452.53;4861568;29;20045;-77
2023/06/09 07:57:45;;;;;;;14.32;10.77;;;;;;;23.56;50.91;101441.31;4862878;29;20065;-78
2023/06/09 08:00:12;;;;;;;17.73;10.32;;;;;;;23.35;52.55;101428.66;4862667;29;20423;-80
2023/06/09 08:02:41;;;;;;;15.82;10.13;;;;;;;23.49;53.68;101445.59;4861395;29;20089;-79
2023/06/09 08:05:07;;;;;;;16.02;10.85;;;;;;;23.54;54.00;101438.03;4862750;29;20033;-82
2023/06/09 08:07:32;;;;;;;16.15;10.88;;;;;;;23.50;52.62;101447.28;4862476;29;20128;-82
2023/06/09 08:09:57;;;;;;;15.13;10.38;;;;;;;23.04;52.76;101402.16;4862613;29;20057;-82
2023/06/09 08:12:22;;;;;;;19.13;11.38;;;;;;;23.09;53.58;101422.72;4861077;29;20363;-83
2023/06/09 08:14:48;;;;;;;16.50;11.02;;;;;;;23.36;53.83;101434.75;4862382;29;20026;-82
2023/06/09 08:17:13;;;;;;;14.40;10.43;;;;;;;23.47;53.60;101437.03;4862240;29;20059;-76
2023/06/09 08:19:38;;;;;;;13.73;9.95;;;;;;;23.53;53.89;101439.03;4879153;29;20116;-78
2023/06/09 08:22:04;;;;;;;14.80;10.52;;;;;;;23.52;54.59;101437.38;4881433;29;20473;-76
2023/06/09 08:24:29;;;;;;;14.50;10.00;;;;;;;23.74;53.96;101439.34;4880672;29;20033;-77
2023/06/09 08:26:56;;;;;;;15.27;10.60;;;;;;;23.66;53.87;101436.72;4880859;29;20021;-76
2023/06/09 08:29:22;;;;;;;15.65;10.77;;;;;;;23.65;53.11;101427.16;4880788;29;20026;-77
2023/06/09 08:31:47;;;;;;;15.38;10.75;;;;;;;23.86;55.34;101429.28;4879407;29;20029;-77
2023/06/09 08:34:13;;;;;;;14.95;11.35;;;;;;;23.65;52.97;101408.72;4880657;29;20587;-81
2023/06/09 08:36:38;;;;;;;15.38;10.65;;;;;;;23.59;55.02;101398.81;4880393;29;20069;-77
2023/06/09 08:39:03;;;;;;;15.65;11.80;;;;;;;23.51;53.91;101390.94;4880313;29;20465;-80
2023/06/09 08:41:37;;;;;;;15.52;11.80;;;;;;;23.67;53.53;101433.09;4848283;29;20041;-79
2023/06/09 08:44:04;;;;;;;13.93;10.90;;;;;;;23.55;55.03;101410.69;4879288;29;20041;-79
2023/06/09 08:46:33;;;;;;;14.65;10.35;;;;;;;23.92;54.53;101428.59;4878919;29;20122;-79
2023/06/09 08:49:01;;;;;;;15.05;12.15;;;;;;;24.01;53.98;101432.03;4880246;29;20064;-80
2023/06/09 08:51:27;;;;;;;16.85;11.40;;;;;;;23.96;53.91;101416.72;4880380;29;20033;-80
2023/06/09 08:53:53;;;;;;;15.43;10.45;;;;;;;24.14;54.65;101420.94;4880026;29;20037;-79
2023/06/09 08:56:22;;;;;;;17.20;11.45;;;;;;;24.15;52.95;101415.50;4880383;29;20388;-78
2023/06/09 08:58:49;;;;;;;13.82;10.00;;;;;;;24.25;52.90;101407.38;4880314;29;20121;-78
2023/06/09 09:01:17;;;;;;;15.57;10.98;;;;;;;24.43;52.03;101436.19;4863616;29;20397;-78
2023/06/09 09:03:43;;;;;;;15.13;11.02;;;;;;;24.56;51.62;101425.88;4880165;29;20033;-78
2023/06/09 09:06:08;;;;;;;15.15;10.80;;;;;;;24.37;52.00;101402.56;4879785;29;20104;-78
2023/06/09 09:08:33;;;;;;;14.85;11.20;;;;;;;24.48;51.40;101425.91;4880071;29;20106;-79
2023/06/09 09:10:59;;;;;;;14.75;9.93;;;;;;;24.52;52.38;101414.03;4878956;29;20055;-79
2023/06/09 09:13:30;;;;;;;14.77;9.82;;;;;;;24.54;53.28;101406.75;4879985;29;20112;-83
2023/06/09 09:15:55;;;;;;;14.60;10.27;;;;;;;24.69;51.85;101402.38;4878773;29;20061;-80
2023/06/09 09:18:44;;;;;;;13.90;10.90;;;;;;;24.75;50.88;101416.69;4879886;29;20116;-80
2023/06/09 09:21:09;;;;;;;12.77;10.10;;;;;;;24.75;50.25;101420.16;4879642;29;20029;-80
2023/06/09 09:23:35;;;;;;;15.02;11.52;;;;;;;24.54;49.55;101409.41;4879923;29;20081;-80
2023/06/09 09:26:05;;;;;;;15.48;10.95;;;;;;;24.39;50.84;101425.16;4880173;29;20028;-80
2023/06/09 09:28:40;;;;;;;14.20;10.63;;;;;;;24.47;51.59;101413.72;4879968;29;20027;-80
2023/06/09 09:31:08;;;;;;;16.52;10.60;;;;;;;24.56;51.41;101404.75;4879649;29;20025;-80
2023/06/09 09:33:36;;;;;;;14.15;10.25;;;;;;;24.69;51.57;101405.03;4878712;29;20041;-80
2023/06/09 09:36:02;;;;;;;13.80;10.45;;;;;;;24.85;51.08;101406.72;4879520;29;20025;-80
2023/06/09 09:38:30;;;;;;;15.55;9.98;;;;;;;25.05;51.35;101401.81;4879799;29;20084;-80
2023/06/09 09:40:59;;;;;;;12.95;9.45;;;;;;;25.35;51.75;101397.44;4877874;29;20035;-78
2023/06/09 09:43:26;;;;;;;12.25;10.30;;;;;;;25.45;49.08;101404.09;4880274;29;20085;-76
2023/06/09 09:45:53;;;;;;;13.63;11.05;;;;;;;25.39;47.51;101404.84;4879089;29;20527;-80
2023/06/09 09:48:21;;;;;;;13.27;9.82;;;;;;;25.24;48.19;101388.09;4878939;29;20561;-79
2023/06/09 09:50:48;;;;;;;13.15;10.35;;;;;;;25.24;48.56;101385.47;4879477;29;20442;-79
2023/06/09 09:53:14;;;;;;;13.93;8.43;;;;;;;25.36;51.05;101383.19;4879485;29;20386;-78
2023/06/09 09:55:44;;;;;;;14.32;9.57;;;;;;;25.32;49.60;101374.81;4879345;29;20036;-79
2023/06/09 09:58:10;;;;;;;12.27;9.20;;;;;;;25.39;46.37;101378.41;4879218;29;20112;-77
2023/06/09 10:00:37;;;;;;;12.55;9.65;;;;;;;25.68;45.78;101397.94;4879235;29;20454;-79
2023/06/09 10:03:13;;;;;;;13.80;9.05;;;;;;;25.67;46.41;101396.31;4879167;29;20072;-78
2023/06/09 10:05:45;;;;;;;12.95;10.02;;;;;;;25.48;46.74;101402.94;4879231;29;20032;-80
2023/06/09 10:08:17;;;;;;;13.52;10.32;;;;;;;25.42;47.23;101403.66;4877990;29;20033;-79
2023/06/09 10:10:43;;;;;;;12.70;9.38;;;;;;;25.53;46.59;101373.28;4879155;29;20088;-77
2023/06/09 10:13:09;;;;;;;12.35;8.65;;;;;;;25.72;47.41;101389.47;4862638;29;20033;-78
2023/06/09 10:15:34;;;;;;;13.82;9.40;;;;;;;25.53;46.11;101346.84;4879071;29;20029;-79
2023/06/09 10:18:01;;;;;;;11.57;8.23;;;;;;;25.73;47.75;101387.66;4878034;29;20041;-78
2023/06/09 10:20:27;;;;;;;12.13;8.80;;;;;;;25.69;46.34;101362.53;4879123;29;20057;-78
2023/06/09 10:22:53;;;;;;;11.93;8.45;;;;;;;25.71;46.26;101369.31;4879054;29;20041;-76
2023/06/09 10:25:19;;;;;;;12.77;8.00;;;;;;;25.82;45.44;101383.91;4878168;29;20068;-76
2023/06/09 10:27:48;;;;;;;10.80;7.47;;;;;;;25.78;43.83;101389.78;4879083;29;20035;-76
2023/06/09 10:30:15;;;;;;;11.65;8.27;;;;;;;25.74;45.12;101381.34;4878315;29;20025;-77
2023/06/09 10:32:47;;;;;;;12.10;7.78;;;;;;;25.82;46.47;101375.97;4878674;29;20445;-77
2023/06/09 10:35:16;;;;;;;11.95;7.85;;;;;;;25.99;45.98;101374.78;4878879;29;20455;-76
2023/06/09 10:37:42;;;;;;;10.43;7.93;;;;;;;26.02;44.36;101371.75;4879029;29;20086;-74
2023/06/09 10:40:30;;;;;;;11.25;8.25;;;;;;;25.99;44.90;101366.84;4879020;29;20037;-76
2023/06/09 10:43:26;;;;;;;13.27;8.55;;;;;;;25.61;44.49;101313.19;4878433;29;20112;-77
2023/06/09 10:45:53;;;;;;;11.30;8.50;;;;;;;25.99;44.01;101361.56;4878558;29;20053;-77
2023/06/09 10:48:45;;;;;;;10.52;7.50;;;;;;;26.15;45.97;101367.63;4879224;29;20033;-78
2023/06/09 10:51:29;;;;;;;8.88;6.30;;;;;;;26.38;44.51;101357.75;4878956;29;20405;-78
2023/06/09 10:54:09;;;;;;;8.57;6.25;;;;;;;26.38;43.20;101362.22;4878835;29;20104;-78
2023/06/09 10:56:45;;;;;;;10.00;6.60;;;;;;;26.47;42.29;101355.81;4878786;29;20525;-78
2023/06/09 10:59:25;;;;;;;8.10;5.82;;;;;;;26.57;42.35;101341.25;4877351;29;20724;-79
2023/06/09 11:02:03;;;;;;;8.93;6.50;;;;;;;26.58;41.47;101347.38;4878613;29;20460;-79
2023/06/09 11:04:46;;;;;;;8.45;5.75;;;;;;;26.57;40.56;101345.72;4878785;29;20119;-80
2023/06/09 11:07:35;;;;;;;7.07;5.43;;;;;;;26.77;40.44;101338.78;4878703;29;20025;-80
2023/06/09 11:10:00;;;;;;;7.80;5.68;;;;;;;26.98;39.97;101340.59;4877785;29;20390;-82
2023/06/09 11:12:46;;;;;;;9.02;6.18;;;;;;;27.09;40.62;101345.38;4877179;29;20032;-79
2023/06/09 11:15:15;;;;;;;9.07;7.10;;;;;;;27.01;41.38;101328.78;4878695;29;20504;-78
2023/06/09 11:17:47;;;;;;;8.88;6.05;;;;;;;26.84;40.31;101304.38;4878478;29;20084;-81
2023/06/09 11:20:17;;;;;;;8.52;6.13;;;;;;;27.03;40.11;101334.72;4878533;29;20025;-80